createdAt,value
2023-05-09T00:00:47.138Z,47.50
2023-05-09T00:03:14.524Z,45.70
2023-05-09T00:05:41.932Z,49.93
2023-05-09T00:08:08.852Z,41.70
2023-05-09T00:10:36.121Z,42.40
2023-05-09T00:13:03.049Z,42.77
2023-05-09T00:15:30.638Z,43.03
2023-05-09T00:17:57.391Z,43.23
2023-05-09T00:20:24.189Z,46.83
2023-05-09T00:22:51.321Z,44.10
2023-05-09T00:25:18.044Z,44.30
2023-05-09T00:27:44.834Z,47.43
2023-05-09T00:30:11.975Z,46.00
2023-05-09T00:32:40.434Z,45.83
2023-05-09T00:35:07.846Z,48.07
2023-05-09T00:37:34.523Z,42.30
2023-05-09T00:40:01.216Z,48.23
2023-05-09T00:42:28.116Z,44.23
2023-05-09T00:44:54.857Z,43.33
2023-05-09T00:47:24.115Z,42.23
2023-05-09T00:49:50.973Z,42.53
2023-05-09T00:52:21.641Z,44.50
2023-05-09T00:54:48.355Z,42.87
2023-05-09T00:57:15.015Z,44.57
2023-05-09T00:59:42.025Z,45.30
2023-05-09T01:02:08.758Z,44.60
2023-05-09T01:04:35.581Z,47.37
2023-05-09T01:07:04.824Z,44.33
2023-05-09T01:09:55.545Z,49.37
2023-05-09T01:12:28.253Z,43.07
2023-05-09T01:15:04.750Z,48.17
2023-05-09T01:17:47.209Z,46.13
2023-05-09T01:20:34.378Z,46.97
2023-05-09T01:23:10.647Z,49.03
2023-05-09T01:25:40.806Z,44.67
2023-05-09T01:28:16.955Z,46.70
2023-05-09T01:30:45.802Z,47.47
2023-05-09T01:33:16.804Z,47.23
2023-05-09T01:35:44.888Z,49.10
2023-05-09T01:38:17.478Z,45.23
2023-05-09T01:40:46.041Z,46.20
2023-05-09T01:43:15.199Z,44.20
2023-05-09T01:45:42.627Z,43.07
2023-05-09T01:48:09.898Z,45.43
2023-05-09T01:50:37.905Z,43.30
2023-05-09T01:53:05.915Z,45.30
2023-05-09T01:55:34.330Z,49.10
2023-05-09T01:58:01.295Z,47.07
2023-05-09T02:00:28.150Z,44.20
2023-05-09T02:02:55.518Z,45.80
2023-05-09T02:05:25.031Z,43.33
2023-05-09T02:07:52.422Z,48.53
2023-05-09T02:10:21.016Z,43.10
2023-05-09T02:12:47.799Z,48.83
2023-05-09T02:15:15.290Z,44.70
2023-05-09T02:17:42.817Z,42.67
2023-05-09T02:20:10.360Z,44.07
2023-05-09T02:22:37.839Z,46.57
2023-05-09T02:25:07.629Z,42.70
2023-05-09T02:27:34.988Z,47.23
2023-05-09T02:30:04.579Z,45.00
2023-05-09T02:32:32.885Z,43.53
2023-05-09T02:35:01.048Z,50.10
2023-05-09T02:37:28.218Z,44.43
2023-05-09T02:39:55.189Z,46.33
2023-05-09T02:42:25.420Z,49.60
2023-05-09T02:44:55.638Z,44.87
2023-05-09T02:47:22.694Z,48.77
2023-05-09T02:49:49.446Z,45.53
2023-05-09T02:52:16.297Z,51.87
2023-05-09T02:54:43.110Z,49.77
2023-05-09T02:57:09.904Z,52.83
2023-05-09T02:59:36.704Z,49.10
2023-05-09T03:02:03.444Z,46.57
2023-05-09T03:04:30.867Z,48.47
2023-05-09T03:06:57.720Z,51.37
2023-05-09T03:09:29.728Z,48.57
2023-05-09T03:11:57.031Z,55.17
2023-05-09T03:14:24.032Z,53.50
2023-05-09T03:16:50.814Z,51.57
2023-05-09T03:19:26.082Z,57.40
2023-05-09T03:21:53.144Z,58.10
2023-05-09T03:24:20.058Z,61.63
2023-05-09T03:26:47.692Z,55.23
2023-05-09T03:29:14.385Z,67.53
2023-05-09T03:31:41.130Z,61.20
2023-05-09T03:34:13.114Z,64.33
2023-05-09T03:36:40.023Z,59.70
2023-05-09T03:39:07.105Z,59.23
2023-05-09T03:41:36.184Z,54.13
2023-05-09T03:44:03.837Z,58.53
2023-05-09T03:46:30.610Z,51.73
2023-05-09T03:48:57.784Z,59.93
2023-05-09T03:51:24.565Z,61.17
2023-05-09T03:53:52.227Z,61.07
2023-05-09T03:56:20.076Z,62.73
2023-05-09T03:58:50.613Z,67.10
2023-05-09T04:01:18.268Z,60.57
2023-05-09T04:03:46.233Z,68.67
2023-05-09T04:06:15.266Z,59.60
2023-05-09T04:08:44.063Z,62.53
2023-05-09T04:11:10.992Z,66.00
2023-05-09T04:13:40.577Z,66.57
2023-05-09T04:16:20.594Z,60.47
2023-05-09T04:18:47.328Z,61.97
2023-05-09T04:21:14.778Z,63.30
2023-05-09T04:23:43.878Z,63.40
2023-05-09T04:26:14.074Z,57.10
2023-05-09T04:28:42.451Z,61.37
2023-05-09T04:31:10.161Z,66.47
2023-05-09T04:33:38.549Z,64.83
2023-05-09T04:36:05.575Z,62.00
2023-05-09T04:38:32.833Z,65.10
2023-05-09T04:41:00.118Z,62.27
2023-05-09T04:43:28.241Z,63.87
2023-05-09T04:45:55.107Z,67.57
2023-05-09T04:48:21.961Z,60.17
2023-05-09T04:50:49.955Z,61.87
2023-05-09T04:53:16.629Z,63.17
2023-05-09T04:55:45.005Z,63.10
2023-05-09T04:58:11.984Z,60.47
2023-05-09T05:00:39.159Z,56.07
2023-05-09T05:03:07.663Z,57.30
2023-05-09T05:05:37.111Z,56.40
2023-05-09T05:08:05.163Z,54.60
2023-05-09T05:10:35.885Z,50.60
2023-05-09T05:13:07.155Z,50.30
2023-05-09T05:15:36.116Z,47.73
2023-05-09T05:18:03.834Z,48.20
2023-05-09T05:20:34.110Z,47.57
2023-05-09T05:23:01.282Z,47.90
2023-05-09T05:25:29.078Z,42.23
2023-05-09T05:27:57.568Z,40.10
2023-05-09T05:30:24.340Z,41.17
2023-05-09T05:32:51.443Z,42.60
2023-05-09T05:35:23.433Z,37.93
2023-05-09T05:37:51.167Z,43.93
2023-05-09T05:40:18.188Z,36.10
2023-05-09T05:42:48.099Z,36.57
2023-05-09T05:45:15.173Z,34.97
2023-05-09T05:47:46.593Z,30.77
2023-05-09T05:50:14.190Z,33.23
2023-05-09T05:52:41.732Z,37.73
2023-05-09T05:55:12.121Z,30.57
2023-05-09T05:57:39.437Z,33.70
2023-05-09T06:00:12.050Z,31.03
2023-05-09T06:02:50.077Z,31.57
2023-05-09T06:05:47.387Z,28.13
2023-05-09T06:08:14.332Z,29.60
2023-05-09T06:10:41.090Z,32.97
2023-05-09T06:13:07.961Z,28.17
2023-05-09T06:15:37.030Z,24.13
2023-05-09T06:18:03.970Z,24.53
2023-05-09T06:20:30.766Z,22.30
2023-05-09T06:22:57.683Z,21.57
2023-05-09T06:25:24.420Z,19.90
2023-05-09T06:27:52.343Z,17.50
2023-05-09T06:30:26.434Z,16.83
2023-05-09T06:32:54.706Z,17.03
2023-05-09T06:35:21.850Z,18.37
2023-05-09T06:37:49.230Z,16.10
2023-05-09T06:40:16.715Z,13.97
2023-05-09T06:42:43.613Z,14.63
2023-05-09T06:45:10.728Z,13.00
2023-05-09T06:47:37.578Z,11.73
2023-05-09T06:50:04.467Z,11.27
2023-05-09T06:52:31.399Z,12.10
2023-05-09T06:54:58.206Z,10.63
2023-05-09T06:57:25.260Z,10.17
2023-05-09T06:59:52.010Z,10.60
2023-05-09T07:02:18.726Z,10.87
2023-05-09T07:04:45.510Z,11.00
2023-05-09T07:07:12.505Z,12.97
2023-05-09T07:09:39.326Z,11.20
2023-05-09T07:12:06.288Z,9.93
2023-05-09T07:14:33.060Z,9.33
2023-05-09T07:17:13.782Z,11.03
2023-05-09T07:19:46.701Z,9.70
2023-05-09T07:22:13.782Z,10.63
2023-05-09T07:24:40.946Z,8.73
2023-05-09T07:27:07.875Z,8.80
2023-05-09T07:29:34.621Z,8.50
2023-05-09T07:32:01.616Z,8.50
2023-05-09T07:34:28.941Z,7.77
2023-05-09T07:36:55.861Z,7.57
2023-05-09T07:39:22.636Z,7.10
2023-05-09T07:41:49.599Z,7.90
2023-05-09T07:44:16.544Z,7.40
2023-05-09T07:46:43.412Z,7.73
2023-05-09T07:49:10.387Z,7.63
2023-05-09T07:51:37.266Z,6.83
2023-05-09T07:54:04.120Z,9.13
2023-05-09T07:56:30.848Z,8.63
2023-05-09T07:58:57.624Z,6.90
2023-05-09T08:01:24.451Z,7.17
2023-05-09T08:03:51.483Z,6.93
2023-05-09T08:06:18.309Z,8.53
2023-05-09T08:08:45.453Z,7.07
2023-05-09T08:11:12.173Z,8.80
2023-05-09T08:13:39.771Z,7.70
2023-05-09T08:16:06.907Z,8.07
2023-05-09T08:18:33.704Z,7.93
2023-05-09T08:21:01.209Z,7.33
2023-05-09T08:23:28.440Z,9.03
2023-05-09T08:25:55.518Z,5.53
2023-05-09T08:28:24.436Z,5.47
2023-05-09T08:30:51.930Z,5.37
2023-05-09T08:33:19.191Z,3.87
2023-05-09T08:35:46.309Z,4.30
2023-05-09T08:38:13.234Z,4.13
2023-05-09T08:40:40.997Z,4.00
2023-05-09T08:43:08.027Z,5.20
2023-05-09T08:45:55.125Z,3.73
2023-05-09T08:48:22.975Z,3.83
2023-05-09T08:50:50.232Z,4.03
2023-05-09T08:53:17.173Z,3.90
2023-05-09T08:55:44.004Z,3.77
2023-05-09T08:58:11.142Z,4.30
2023-05-09T09:00:39.026Z,2.90
2023-05-09T09:03:06.878Z,3.10
2023-05-09T09:05:41.818Z,3.43
2023-05-09T09:08:10.366Z,4.93
2023-05-09T09:10:39.588Z,3.63
2023-05-09T09:13:07.514Z,4.73
2023-05-09T09:15:36.317Z,4.47
2023-05-09T09:18:08.166Z,4.33
2023-05-09T09:20:43.780Z,6.30
2023-05-09T09:23:11.579Z,4.53
2023-05-09T09:25:38.815Z,6.23
2023-05-09T09:28:05.889Z,5.03
2023-05-09T09:30:32.960Z,7.00
2023-05-09T09:33:00.504Z,3.73
2023-05-09T09:35:27.703Z,4.23
2023-05-09T09:38:00.124Z,3.03
2023-05-09T09:40:27.094Z,3.70
2023-05-09T09:42:54.044Z,4.77
2023-05-09T09:45:21.427Z,3.47
2023-05-09T09:47:50.104Z,2.80
2023-05-09T09:50:23.522Z,5.53
2023-05-09T09:52:56.009Z,3.67
2023-05-09T09:55:24.238Z,3.70
2023-05-09T09:57:51.665Z,4.57
2023-05-09T10:00:20.170Z,2.80
2023-05-09T10:03:00.475Z,3.17
2023-05-09T10:05:31.322Z,3.63
2023-05-09T10:07:59.500Z,4.43
2023-05-09T10:10:27.138Z,4.57
2023-05-09T10:12:55.960Z,4.70
2023-05-09T10:15:23.083Z,5.57
2023-05-09T10:18:01.181Z,5.70
2023-05-09T10:20:28.792Z,5.00
2023-05-09T10:23:01.310Z,7.23
2023-05-09T10:25:32.997Z,4.33
2023-05-09T10:28:00.832Z,3.37
2023-05-09T10:30:40.218Z,4.40
2023-05-09T10:33:13.560Z,3.67
2023-05-09T10:35:41.701Z,3.93
2023-05-09T10:38:10.083Z,3.93
2023-05-09T10:40:37.307Z,3.83
2023-05-09T10:43:05.538Z,2.73
2023-05-09T10:45:32.363Z,2.87
2023-05-09T10:47:59.717Z,2.97
2023-05-09T10:50:27.015Z,3.30
2023-05-09T10:53:11.641Z,4.63
2023-05-09T10:55:47.837Z,2.30
2023-05-09T10:58:36.356Z,2.77
2023-05-09T11:01:03.996Z,3.90
2023-05-09T11:03:51.187Z,2.40
2023-05-09T11:06:37.004Z,2.30
2023-05-09T11:09:22.611Z,4.27
2023-05-09T11:11:53.372Z,3.33
2023-05-09T11:14:35.892Z,4.80
2023-05-09T11:17:04.497Z,3.23
2023-05-09T11:19:46.601Z,4.40
2023-05-09T11:22:16.183Z,4.10
2023-05-09T11:24:47.108Z,3.93
2023-05-09T11:27:16.973Z,3.83
2023-05-09T11:29:51.092Z,5.50
2023-05-09T11:32:18.134Z,3.87
2023-05-09T11:34:45.853Z,5.97
2023-05-09T11:37:13.664Z,4.63
2023-05-09T11:40:00.341Z,4.90
2023-05-09T11:42:30.005Z,5.67
2023-05-09T11:44:57.792Z,6.57
2023-05-09T11:47:25.192Z,5.83
2023-05-09T11:49:52.231Z,6.27
2023-05-09T11:52:20.219Z,5.67
2023-05-09T11:54:47.129Z,3.67
2023-05-09T11:57:17.649Z,5.10
2023-05-09T11:59:45.671Z,6.07
2023-05-09T12:02:13.106Z,4.50
2023-05-09T12:04:40.163Z,3.93
2023-05-09T12:07:06.993Z,4.67
2023-05-09T12:09:34.622Z,4.23
2023-05-09T12:12:01.495Z,4.73
2023-05-09T12:14:28.728Z,6.27
2023-05-09T12:16:56.101Z,5.60
2023-05-09T12:19:23.536Z,5.83
2023-05-09T12:21:54.381Z,5.97
2023-05-09T12:24:22.060Z,6.87
2023-05-09T12:26:49.612Z,6.80
2023-05-09T12:29:17.133Z,6.40
2023-05-09T12:31:44.107Z,6.83
2023-05-09T12:34:11.312Z,7.07
2023-05-09T12:36:38.585Z,7.50
2023-05-09T12:39:11.683Z,7.07
2023-05-09T12:41:53.887Z,8.03
2023-05-09T12:44:30.101Z,8.17
2023-05-09T12:46:58.843Z,8.17
2023-05-09T12:49:26.172Z,8.50
2023-05-09T12:51:53.767Z,8.30
2023-05-09T12:54:24.840Z,7.70
2023-05-09T12:56:57.031Z,7.97
2023-05-09T12:59:25.203Z,8.60
2023-05-09T13:01:54.195Z,7.83
2023-05-09T13:04:21.761Z,10.07
2023-05-09T13:06:50.702Z,9.37
2023-05-09T13:09:18.394Z,11.37
2023-05-09T13:11:46.812Z,7.77
2023-05-09T13:14:13.950Z,9.57
2023-05-09T13:16:41.183Z,9.10
2023-05-09T13:19:08.222Z,8.40
2023-05-09T13:21:35.217Z,7.53
2023-05-09T13:24:02.139Z,8.13
2023-05-09T13:26:29.700Z,6.70
2023-05-09T13:28:56.914Z,7.80
2023-05-09T13:31:24.291Z,7.60
2023-05-09T13:33:51.925Z,7.00
2023-05-09T13:36:19.286Z,10.67
2023-05-09T13:38:46.390Z,9.47
2023-05-09T13:41:20.537Z,6.53
2023-05-09T13:43:47.499Z,7.53
2023-05-09T13:46:14.520Z,8.40
2023-05-09T13:48:42.101Z,8.30
2023-05-09T13:51:10.466Z,5.90
2023-05-09T13:53:39.062Z,7.47
2023-05-09T13:56:07.514Z,6.10
2023-05-09T13:58:37.644Z,6.53
2023-05-09T14:01:04.666Z,5.73
2023-05-09T14:03:32.095Z,7.53
2023-05-09T14:05:59.007Z,7.27
2023-05-09T14:08:26.007Z,7.43
2023-05-09T14:10:53.157Z,6.80
2023-05-09T14:13:20.818Z,8.07
2023-05-09T14:15:47.839Z,10.17
2023-05-09T14:18:17.130Z,12.57
2023-05-09T14:20:46.328Z,5.27
2023-05-09T14:23:13.717Z,6.83
2023-05-09T14:25:40.490Z,10.83
2023-05-09T14:28:09.633Z,7.93
2023-05-09T14:30:36.807Z,4.80
2023-05-09T14:33:03.845Z,7.03
2023-05-09T14:35:33.018Z,5.67
2023-05-09T14:38:00.196Z,5.73
2023-05-09T14:40:32.046Z,7.20
2023-05-09T14:42:59.426Z,4.57
2023-05-09T14:45:26.696Z,6.73
2023-05-09T14:47:53.866Z,6.23
2023-05-09T14:50:21.801Z,7.03
2023-05-09T14:52:49.064Z,5.80
2023-05-09T14:55:16.018Z,4.80
2023-05-09T14:57:42.795Z,5.93
2023-05-09T15:00:20.290Z,2.50
2023-05-09T15:02:48.028Z,2.63
2023-05-09T15:05:15.001Z,4.13
2023-05-09T15:07:41.790Z,3.07
2023-05-09T15:10:08.670Z,3.67
2023-05-09T15:12:35.893Z,2.20
2023-05-09T15:15:15.913Z,4.07
2023-05-09T15:17:43.626Z,2.87
2023-05-09T15:20:17.915Z,8.10
2023-05-09T15:22:45.604Z,0.10
2023-05-09T15:25:12.518Z,0.10
2023-05-09T15:27:40.217Z,0.10
2023-05-09T15:30:07.410Z,0.00
2023-05-09T15:32:34.825Z,0.10
2023-05-09T15:35:01.685Z,0.10
2023-05-09T15:37:28.694Z,0.10
2023-05-09T15:39:55.771Z,0.10
2023-05-09T15:42:22.875Z,0.10
2023-05-09T15:44:49.923Z,0.10
2023-05-09T15:47:16.851Z,0.10
2023-05-09T15:49:43.580Z,0.10
2023-05-09T15:52:13.557Z,0.13
2023-05-09T15:54:40.560Z,0.20
2023-05-09T15:57:08.456Z,0.10
2023-05-09T15:59:36.066Z,1.00
2023-05-09T16:02:03.961Z,0.10
2023-05-09T16:04:31.868Z,0.10
2023-05-09T16:07:01.274Z,0.10
2023-05-09T16:09:28.757Z,0.17
2023-05-09T16:11:56.544Z,0.10
2023-05-09T16:14:23.616Z,0.10
2023-05-09T16:16:51.882Z,0.10
2023-05-09T16:19:19.904Z,0.10
2023-05-09T16:21:55.022Z,0.10
2023-05-09T16:24:21.893Z,0.10
2023-05-09T16:26:48.711Z,0.10
2023-05-09T16:29:15.696Z,0.13
2023-05-09T16:31:45.055Z,0.10
2023-05-09T16:34:12.212Z,0.10
2023-05-09T16:36:39.673Z,0.00
2023-05-09T16:39:06.486Z,0.10
2023-05-09T16:41:33.354Z,0.10
2023-05-09T16:44:00.454Z,0.00
2023-05-09T16:46:27.397Z,0.10
2023-05-09T16:48:54.269Z,0.10
2023-05-09T16:51:21.270Z,0.10
2023-05-09T16:53:48.346Z,0.10
2023-05-09T16:56:15.227Z,0.20
2023-05-09T16:58:43.349Z,0.10
2023-05-09T17:01:10.160Z,0.10
2023-05-09T17:03:37.193Z,0.10
2023-05-09T17:06:04.045Z,0.10
2023-05-09T17:08:30.761Z,0.17
2023-05-09T17:10:58.044Z,0.10
2023-05-09T17:13:25.053Z,0.10
2023-05-09T17:15:52.898Z,0.10
2023-05-09T17:18:33.402Z,0.10
2023-05-09T17:21:03.664Z,0.10
2023-05-09T17:23:31.167Z,0.10
2023-05-09T17:25:57.946Z,0.10
2023-05-09T17:28:24.908Z,0.13
2023-05-09T17:30:51.986Z,0.10
2023-05-09T17:33:19.518Z,0.10
2023-05-09T17:35:49.616Z,0.10
2023-05-09T17:38:17.054Z,0.10
2023-05-09T17:40:44.514Z,0.10
2023-05-09T17:43:11.492Z,0.10
2023-05-09T17:45:38.368Z,0.10
2023-05-09T17:48:05.184Z,0.10
2023-05-09T17:50:31.874Z,0.10
2023-05-09T17:52:58.890Z,0.10
2023-05-09T17:55:25.857Z,0.10
2023-05-09T17:57:52.636Z,0.20
2023-05-09T18:00:19.940Z,0.10
2023-05-09T18:02:48.275Z,0.10
2023-05-09T18:05:15.139Z,0.10
2023-05-09T18:07:41.881Z,0.10
2023-05-09T18:10:09.532Z,0.30
2023-05-09T18:12:37.368Z,0.10
2023-05-09T18:15:05.016Z,0.10
2023-05-09T18:17:32.089Z,0.10
2023-05-09T18:19:59.215Z,0.10
2023-05-09T18:22:26.557Z,0.10
2023-05-09T18:24:53.382Z,0.57
2023-05-09T18:27:20.169Z,0.10
2023-05-09T18:29:47.688Z,0.10
2023-05-09T18:32:14.602Z,0.10
2023-05-09T18:34:42.181Z,0.10
2023-05-09T18:37:10.257Z,0.10
2023-05-09T18:39:37.473Z,0.10
2023-05-09T18:42:06.228Z,0.10
2023-05-09T18:44:32.990Z,0.10
2023-05-09T18:47:00.175Z,0.10
2023-05-09T18:49:27.372Z,0.10
2023-05-09T18:51:55.183Z,0.10
2023-05-09T18:54:22.164Z,0.10
2023-05-09T18:56:49.948Z,0.10
2023-05-09T18:59:17.632Z,0.10
2023-05-09T19:01:44.581Z,0.10
2023-05-09T19:04:11.643Z,0.10
2023-05-09T19:06:39.255Z,0.10
2023-05-09T19:09:06.446Z,0.10
2023-05-09T19:11:33.770Z,0.20
2023-05-09T19:14:00.829Z,0.10
2023-05-09T19:16:28.173Z,0.10
2023-05-09T19:18:56.436Z,0.10
2023-05-09T19:21:24.353Z,0.20
2023-05-09T19:23:51.396Z,0.30
2023-05-09T19:26:19.163Z,0.10
2023-05-09T19:28:47.076Z,0.10
2023-05-09T19:31:15.112Z,0.10
2023-05-09T19:33:42.992Z,0.10
2023-05-09T19:36:09.993Z,0.23
2023-05-09T19:38:37.093Z,0.20
2023-05-09T19:41:07.150Z,0.10
2023-05-09T19:43:34.167Z,0.10
2023-05-09T19:46:01.351Z,0.10
2023-05-09T19:48:28.739Z,0.10
2023-05-09T19:50:58.385Z,0.10
2023-05-09T19:53:25.792Z,0.10
2023-05-09T19:55:52.899Z,0.10
2023-05-09T19:58:20.226Z,0.10
2023-05-09T20:00:47.213Z,0.00
2023-05-09T20:03:14.383Z,0.00
2023-05-09T20:05:41.421Z,0.83
2023-05-09T20:08:08.241Z,0.10
2023-05-09T20:10:35.151Z,0.10
2023-05-09T20:13:04.796Z,0.07
2023-05-09T20:15:31.750Z,0.10
2023-05-09T20:17:58.913Z,0.10
2023-05-09T20:20:25.764Z,0.10
2023-05-09T20:22:52.599Z,0.10
2023-05-09T20:25:19.722Z,0.10
2023-05-09T20:27:46.718Z,0.10
2023-05-09T20:30:13.810Z,0.10
2023-05-09T20:32:40.840Z,0.10
2023-05-09T20:35:07.714Z,0.10
2023-05-09T20:37:34.458Z,0.10
2023-05-09T20:40:01.884Z,0.10
2023-05-09T20:42:28.674Z,0.10
2023-05-09T20:44:55.343Z,0.30
2023-05-09T20:47:22.110Z,0.30
2023-05-09T20:49:48.779Z,0.20
2023-05-09T20:52:15.673Z,0.10
2023-05-09T20:54:42.521Z,0.10
2023-05-09T20:57:09.321Z,0.10
2023-05-09T20:59:36.439Z,0.10
2023-05-09T21:02:03.180Z,0.10
2023-05-09T21:04:29.944Z,0.10
2023-05-09T21:06:56.831Z,0.10
2023-05-09T21:09:23.535Z,0.20
2023-05-09T21:11:50.283Z,0.10
2023-05-09T21:14:17.039Z,0.10
2023-05-09T21:16:44.129Z,0.10
2023-05-09T21:19:11.030Z,0.10
2023-05-09T21:21:37.742Z,0.37
2023-05-09T21:24:09.083Z,0.10
2023-05-09T21:26:36.627Z,0.10
2023-05-09T21:29:03.371Z,0.30
2023-05-09T21:31:30.059Z,0.10
2023-05-09T21:33:58.906Z,0.10
2023-05-09T21:36:25.921Z,0.47
2023-05-09T21:38:52.586Z,0.10
2023-05-09T21:41:19.342Z,0.30
2023-05-09T21:43:46.323Z,0.10
2023-05-09T21:46:13.076Z,0.10
2023-05-09T21:48:39.901Z,0.10
2023-05-09T21:51:08.493Z,0.53
2023-05-09T21:53:35.281Z,0.10
2023-05-09T21:56:02.388Z,0.60
2023-05-09T21:58:29.117Z,0.10
2023-05-09T22:00:55.857Z,0.10
2023-05-09T22:03:23.565Z,0.10
2023-05-09T22:05:50.380Z,0.17
2023-05-09T22:08:17.152Z,0.30
2023-05-09T22:10:43.913Z,0.10
2023-05-09T22:13:11.202Z,0.10
2023-05-09T22:15:37.951Z,0.10
2023-05-09T22:18:04.846Z,0.10
2023-05-09T22:20:31.598Z,0.13
2023-05-09T22:22:58.327Z,0.20
2023-05-09T22:25:25.036Z,1.30
2023-05-09T22:27:51.757Z,0.10
2023-05-09T22:30:18.812Z,0.10
2023-05-09T22:32:46.070Z,0.10
2023-05-09T22:35:12.864Z,0.10
2023-05-09T22:37:39.546Z,0.30
2023-05-09T22:40:06.725Z,0.10
2023-05-09T22:42:34.896Z,1.13
2023-05-09T22:45:01.777Z,0.20
2023-05-09T22:47:29.021Z,0.10
2023-05-09T22:49:56.087Z,0.10
2023-05-09T22:52:22.798Z,0.20
2023-05-09T22:54:49.475Z,0.67
2023-05-09T22:57:19.332Z,0.10
2023-05-09T22:59:46.819Z,0.20
2023-05-09T23:02:13.656Z,0.10
2023-05-09T23:04:40.510Z,0.20
2023-05-09T23:07:07.897Z,2.07
2023-05-09T23:09:34.980Z,0.67
2023-05-09T23:12:02.749Z,0.10
2023-05-09T23:14:30.549Z,0.10
2023-05-09T23:16:57.303Z,0.10
2023-05-09T23:19:24.044Z,0.10
2023-05-09T23:21:50.791Z,0.10
2023-05-09T23:24:17.751Z,0.20
2023-05-09T23:26:45.225Z,0.10
2023-05-09T23:29:12.125Z,0.10
2023-05-09T23:31:39.247Z,0.33
2023-05-09T23:34:06.309Z,0.10
2023-05-09T23:36:33.062Z,0.10
2023-05-09T23:38:59.812Z,0.13
2023-05-09T23:41:26.702Z,0.10
2023-05-09T23:43:53.786Z,0.10
2023-05-09T23:46:20.654Z,0.10
2023-05-09T23:48:47.389Z,0.37
2023-05-09T23:51:14.324Z,0.20
2023-05-09T23:53:41.334Z,0.10
2023-05-09T23:56:08.409Z,0.30
2023-05-09T23:58:35.153Z,1.80
